createdAt,value
2023-05-04T00:00:32.829Z,7.56
2023-05-04T00:03:00.784Z,7.55
2023-05-04T00:05:28.806Z,7.53
2023-05-04T00:07:56.706Z,7.41
2023-05-04T00:10:24.600Z,7.34
2023-05-04T00:12:53.945Z,7.33
2023-05-04T00:15:21.884Z,7.43
2023-05-04T00:17:49.822Z,7.45
2023-05-04T00:20:18.311Z,7.43
2023-05-04T00:22:46.197Z,7.38
2023-05-04T00:25:14.161Z,7.39
2023-05-04T00:27:42.101Z,7.41
2023-05-04T00:30:12.410Z,7.35
2023-05-04T00:32:40.376Z,7.35
2023-05-04T00:35:09.460Z,7.27
2023-05-04T00:37:37.352Z,7.31
2023-05-04T00:40:06.177Z,7.35
2023-05-04T00:42:34.477Z,7.35
2023-05-04T00:45:02.353Z,7.24
2023-05-04T00:47:31.651Z,7.12
2023-05-04T00:49:59.592Z,7.14
2023-05-04T00:52:28.416Z,7.16
2023-05-04T00:54:56.411Z,7.09
2023-05-04T00:57:24.356Z,7.04
2023-05-04T00:59:52.300Z,7.06
2023-05-04T01:02:21.171Z,7.01
2023-05-04T01:04:50.503Z,7.02
2023-05-04T01:07:22.721Z,7.03
2023-05-04T01:09:54.489Z,7.03
2023-05-04T01:12:25.947Z,7.00
2023-05-04T01:14:54.962Z,6.97
2023-05-04T01:17:22.921Z,6.95
2023-05-04T01:19:54.053Z,6.87
2023-05-04T01:22:23.850Z,6.71
2023-05-04T01:24:51.953Z,6.76
2023-05-04T01:27:23.330Z,6.83
2023-05-04T01:29:58.299Z,6.87
2023-05-04T01:32:29.420Z,6.88
2023-05-04T01:34:57.848Z,6.88
2023-05-04T01:37:27.323Z,6.83
2023-05-04T01:39:55.331Z,6.82
2023-05-04T01:42:23.257Z,6.81
2023-05-04T01:44:51.823Z,6.81
2023-05-04T01:47:19.688Z,6.77
2023-05-04T01:49:47.579Z,6.79
2023-05-04T01:52:15.821Z,6.67
2023-05-04T01:54:45.110Z,6.51
2023-05-04T01:57:13.014Z,6.46
2023-05-04T01:59:40.949Z,6.47
2023-05-04T02:02:08.965Z,6.60
2023-05-04T02:04:37.104Z,6.64
2023-05-04T02:07:05.049Z,6.62
2023-05-04T02:09:33.101Z,6.60
2023-05-04T02:12:02.713Z,6.57
2023-05-04T02:14:30.608Z,6.53
2023-05-04T02:16:58.524Z,6.49
2023-05-04T02:19:26.910Z,6.41
2023-05-04T02:21:54.836Z,6.43
2023-05-04T02:24:22.739Z,6.46
2023-05-04T02:26:50.660Z,6.45
2023-05-04T02:29:19.978Z,6.46
2023-05-04T02:31:47.954Z,6.42
2023-05-04T02:34:15.946Z,6.39
2023-05-04T02:36:43.970Z,6.36
2023-05-04T02:39:11.851Z,6.31
2023-05-04T02:41:39.811Z,6.23
2023-05-04T02:44:07.721Z,6.25
2023-05-04T02:46:36.994Z,6.29
2023-05-04T02:49:04.880Z,6.30
2023-05-04T02:51:32.823Z,6.25
2023-05-04T02:54:00.786Z,6.15
2023-05-04T02:56:28.705Z,6.17
2023-05-04T02:58:56.604Z,6.17
2023-05-04T03:01:24.537Z,6.14
2023-05-04T03:03:53.913Z,6.15
2023-05-04T03:06:21.788Z,6.14
2023-05-04T03:08:49.726Z,6.14
2023-05-04T03:11:17.689Z,6.12
2023-05-04T03:13:45.556Z,6.14
2023-05-04T03:16:13.513Z,6.16
2023-05-04T03:21:28.904Z,6.13
2023-05-04T03:23:57.041Z,6.07
2023-05-04T03:26:24.942Z,6.05
2023-05-04T03:28:52.850Z,5.99
2023-05-04T03:31:20.817Z,6.00
2023-05-04T03:33:48.703Z,6.01
2023-05-04T03:36:16.840Z,5.97
2023-05-04T03:38:46.788Z,5.97
2023-05-04T03:41:15.519Z,5.98
2023-05-04T03:43:43.537Z,5.98
2023-05-04T03:46:11.610Z,5.96
2023-05-04T03:48:39.541Z,5.97
2023-05-04T03:51:07.650Z,5.94
2023-05-04T03:53:35.892Z,5.99
2023-05-04T03:56:05.342Z,6.01
2023-05-04T03:58:33.223Z,6.04
2023-05-04T04:01:03.372Z,6.07
2023-05-04T04:03:31.919Z,6.04
2023-05-04T04:06:00.194Z,6.04
2023-05-04T04:08:28.151Z,6.05
2023-05-04T04:10:56.088Z,6.07
2023-05-04T04:13:25.485Z,6.03
2023-05-04T04:15:53.448Z,6.05
2023-05-04T04:18:21.375Z,6.02
2023-05-04T04:20:49.296Z,6.03
2023-05-04T04:23:19.306Z,6.10
2023-05-04T04:25:47.392Z,6.12
2023-05-04T04:28:16.062Z,6.15
2023-05-04T04:30:46.291Z,6.18
2023-05-04T04:33:15.089Z,6.18
2023-05-04T04:35:42.974Z,6.16
2023-05-04T04:38:10.989Z,6.17
2023-05-04T04:40:38.887Z,6.22
2023-05-04T04:43:06.768Z,6.22
2023-05-04T04:45:35.756Z,6.24
2023-05-04T04:48:05.348Z,6.33
2023-05-04T04:50:33.399Z,6.35
2023-05-04T04:53:01.294Z,6.41
2023-05-04T04:55:29.171Z,6.46
2023-05-04T04:57:57.128Z,6.48
2023-05-04T05:00:26.209Z,6.55
2023-05-04T05:02:54.319Z,6.57
2023-05-04T05:05:23.687Z,6.62
2023-05-04T05:07:51.559Z,6.67
2023-05-04T05:10:21.169Z,6.70
2023-05-04T05:12:49.852Z,6.71
2023-05-04T05:15:17.935Z,6.72
2023-05-04T05:17:46.241Z,6.74
2023-05-04T05:20:15.336Z,6.80
2023-05-04T05:22:44.662Z,6.82
2023-05-04T05:25:12.610Z,6.85
2023-05-04T05:27:40.492Z,6.93
2023-05-04T05:30:09.191Z,6.99
2023-05-04T05:32:37.184Z,7.03
2023-05-04T05:35:05.626Z,7.06
2023-05-04T05:37:33.858Z,7.10
2023-05-04T05:40:04.741Z,7.20
2023-05-04T05:42:32.806Z,7.27
2023-05-04T05:45:01.839Z,7.33
2023-05-04T05:47:29.768Z,7.43
2023-05-04T05:49:57.738Z,7.50
2023-05-04T05:52:25.739Z,7.57
2023-05-04T05:54:53.696Z,7.62
2023-05-04T05:57:22.999Z,7.71
2023-05-04T05:59:51.015Z,7.76
2023-05-04T06:02:19.003Z,7.83
2023-05-04T06:04:46.994Z,7.91
2023-05-04T06:07:14.978Z,8.01
2023-05-04T06:09:43.011Z,8.17
2023-05-04T06:12:13.573Z,8.27
2023-05-04T06:14:42.854Z,8.32
2023-05-04T06:17:10.899Z,8.44
2023-05-04T06:19:39.216Z,8.55
2023-05-04T06:22:07.698Z,8.69
2023-05-04T06:24:35.716Z,8.78
2023-05-04T06:27:03.648Z,8.85
2023-05-04T06:29:31.538Z,8.95
2023-05-04T06:32:00.962Z,9.10
2023-05-04T06:34:29.602Z,9.24
2023-05-04T06:36:57.803Z,9.30
2023-05-04T06:39:25.735Z,9.42
2023-05-04T06:41:55.073Z,9.52
2023-05-04T06:44:23.052Z,9.54
2023-05-04T06:46:51.338Z,9.63
2023-05-04T06:49:20.666Z,9.74
2023-05-04T06:51:48.580Z,9.88
2023-05-04T06:54:16.473Z,9.93
2023-05-04T06:56:44.363Z,10.05
2023-05-04T06:59:12.303Z,10.14
2023-05-04T07:01:40.385Z,10.25
2023-05-04T07:04:08.412Z,10.33
2023-05-04T07:06:39.485Z,10.42
2023-05-04T07:09:08.355Z,10.52
2023-05-04T07:11:36.252Z,10.58
2023-05-04T07:14:04.163Z,10.67
2023-05-04T07:16:33.125Z,10.78
2023-05-04T07:19:01.126Z,10.82
2023-05-04T07:21:29.816Z,10.90
2023-05-04T07:23:59.235Z,11.01
2023-05-04T07:26:27.125Z,11.13
2023-05-04T07:28:55.116Z,11.33
2023-05-04T07:31:23.109Z,11.45
2023-05-04T07:33:51.230Z,11.50
2023-05-04T07:36:19.202Z,11.65
2023-05-04T07:38:47.096Z,11.77
2023-05-04T07:41:16.422Z,11.88
2023-05-04T07:43:47.329Z,11.94
2023-05-04T07:46:15.381Z,12.02
2023-05-04T07:48:43.316Z,11.99
2023-05-04T07:51:15.114Z,12.01
2023-05-04T07:53:43.581Z,12.08
2023-05-04T07:56:12.680Z,12.11
2023-05-04T07:58:42.348Z,12.20
2023-05-04T08:01:10.261Z,12.30
2023-05-04T08:03:38.133Z,12.34
2023-05-04T08:06:06.177Z,12.40
2023-05-04T08:08:34.247Z,12.50
2023-05-04T08:11:15.993Z,12.60
2023-05-04T08:13:49.334Z,12.65
2023-05-04T08:16:17.527Z,12.67
2023-05-04T08:18:45.435Z,12.74
2023-05-04T08:21:13.380Z,12.91
2023-05-04T08:23:42.244Z,12.95
2023-05-04T08:26:10.713Z,13.05
2023-05-04T08:28:40.197Z,13.22
2023-05-04T08:31:09.518Z,13.27
2023-05-04T08:33:37.470Z,13.27
2023-05-04T08:36:05.788Z,13.42
2023-05-04T08:38:33.782Z,13.37
2023-05-04T08:41:03.761Z,13.47
2023-05-04T08:43:32.173Z,13.52
2023-05-04T08:46:00.182Z,13.64
2023-05-04T08:48:29.552Z,13.74
2023-05-04T08:50:58.978Z,13.79
2023-05-04T08:53:28.144Z,13.92
2023-05-04T08:55:56.937Z,14.02
2023-05-04T08:58:26.193Z,14.07
2023-05-04T09:00:54.273Z,14.26
2023-05-04T09:03:22.389Z,14.45
2023-05-04T09:05:53.066Z,14.59
2023-05-04T09:08:21.623Z,14.65
2023-05-04T09:10:49.637Z,14.74
2023-05-04T09:13:18.019Z,14.84
2023-05-04T09:15:55.708Z,14.92
2023-05-04T09:18:24.580Z,14.99
2023-05-04T09:20:53.891Z,15.14
2023-05-04T09:23:26.236Z,15.28
2023-05-04T09:25:54.852Z,15.37
2023-05-04T09:28:34.368Z,15.35
2023-05-04T09:31:02.828Z,15.42
2023-05-04T09:33:32.105Z,15.61
2023-05-04T09:36:14.274Z,15.76
2023-05-04T09:38:42.402Z,15.87
2023-05-04T09:41:10.288Z,15.88
2023-05-04T09:43:39.518Z,15.91
2023-05-04T09:46:08.653Z,15.90
2023-05-04T09:48:37.026Z,15.98
2023-05-04T09:51:07.347Z,16.01
2023-05-04T09:53:37.247Z,16.10
2023-05-04T09:56:11.331Z,16.17
2023-05-04T09:58:40.221Z,16.21
2023-05-04T10:01:09.121Z,16.29
2023-05-04T10:03:37.298Z,16.47
2023-05-04T10:06:09.102Z,16.51
2023-05-04T10:08:37.396Z,16.54
2023-05-04T10:11:07.694Z,16.56
2023-05-04T10:13:35.595Z,16.62
2023-05-04T10:16:12.467Z,16.58
2023-05-04T10:18:51.030Z,16.51
2023-05-04T10:21:27.220Z,16.54
2023-05-04T10:24:16.930Z,16.79
2023-05-04T10:27:00.593Z,17.12
2023-05-04T10:29:31.036Z,17.34
2023-05-04T10:31:59.623Z,17.42
2023-05-04T10:34:29.521Z,17.52
2023-05-04T10:36:59.181Z,17.41
2023-05-04T10:39:28.861Z,17.38
2023-05-04T10:42:01.661Z,17.16
2023-05-04T10:44:30.191Z,17.32
2023-05-04T10:46:59.902Z,17.28
2023-05-04T10:49:28.082Z,17.28
2023-05-04T10:52:16.240Z,17.47
2023-05-04T10:54:44.462Z,17.40
2023-05-04T10:57:16.508Z,17.53
2023-05-04T10:59:57.167Z,17.61
2023-05-04T11:02:31.778Z,17.44
2023-05-04T11:05:04.423Z,17.59
2023-05-04T11:07:38.227Z,16.84
2023-05-04T11:10:08.364Z,17.29
2023-05-04T11:12:36.872Z,17.15
2023-05-04T11:15:06.858Z,17.47
2023-05-04T11:17:35.157Z,17.72
2023-05-04T11:20:03.117Z,17.84
2023-05-04T11:22:33.306Z,17.95
2023-05-04T11:25:02.839Z,17.86
2023-05-04T11:27:31.326Z,17.15
2023-05-04T11:30:01.033Z,17.04
2023-05-04T11:32:36.128Z,17.76
2023-05-04T11:35:05.118Z,17.71
2023-05-04T11:37:39.580Z,18.07
2023-05-04T11:40:12.988Z,18.30
2023-05-04T11:42:41.429Z,18.40
2023-05-04T11:45:13.098Z,18.04
2023-05-04T11:47:41.438Z,18.23
2023-05-04T11:50:12.005Z,18.41
2023-05-04T11:52:41.110Z,18.16
2023-05-04T11:55:11.934Z,18.41
2023-05-04T11:57:40.430Z,18.23
2023-05-04T12:00:09.961Z,18.47
2023-05-04T12:02:37.992Z,18.58
2023-05-04T12:05:13.807Z,18.91
2023-05-04T12:07:42.246Z,18.77
2023-05-04T12:10:11.926Z,17.70
2023-05-04T12:12:39.864Z,18.19
2023-05-04T12:15:08.995Z,18.64
2023-05-04T12:17:43.648Z,18.77
2023-05-04T12:20:12.874Z,19.15
2023-05-04T12:22:40.775Z,19.40
2023-05-04T12:25:11.224Z,19.12
2023-05-04T12:27:41.770Z,19.22
2023-05-04T12:30:11.155Z,19.49
2023-05-04T12:32:39.273Z,19.49
2023-05-04T12:35:08.117Z,19.34
2023-05-04T12:37:36.421Z,19.53
2023-05-04T12:40:11.361Z,19.65
2023-05-04T12:42:46.894Z,19.58
2023-05-04T12:45:16.131Z,19.52
2023-05-04T12:47:44.081Z,19.62
2023-05-04T12:50:12.181Z,19.90
2023-05-04T12:52:41.292Z,19.87
2023-05-04T12:55:09.715Z,19.88
2023-05-04T12:57:37.626Z,19.75
2023-05-04T13:00:10.023Z,19.76
2023-05-04T13:02:38.425Z,19.71
2023-05-04T13:05:08.208Z,19.53
2023-05-04T13:07:36.468Z,19.64
2023-05-04T13:10:04.814Z,19.70
2023-05-04T13:12:33.086Z,19.89
2023-05-04T13:15:00.986Z,20.15
2023-05-04T13:17:33.797Z,20.39
2023-05-04T13:20:04.735Z,20.34
2023-05-04T13:22:32.913Z,20.68
2023-05-04T13:25:00.934Z,21.05
2023-05-04T13:27:29.348Z,21.13
2023-05-04T13:29:58.452Z,21.33
2023-05-04T13:32:27.828Z,21.57
2023-05-04T13:34:57.118Z,21.98
2023-05-04T13:37:25.038Z,21.82
2023-05-04T13:39:52.971Z,21.98
2023-05-04T13:42:21.159Z,22.14
2023-05-04T13:44:49.119Z,22.12
2023-05-04T13:47:17.641Z,22.06
2023-05-04T13:49:45.715Z,22.14
2023-05-04T13:52:15.004Z,22.24
2023-05-04T13:54:42.884Z,22.25
2023-05-04T13:57:10.884Z,21.83
2023-05-04T13:59:38.802Z,21.70
2023-05-04T14:02:06.805Z,21.70
2023-05-04T14:04:35.740Z,21.70
2023-05-04T14:07:05.450Z,21.42
2023-05-04T14:09:34.744Z,21.62
2023-05-04T14:12:02.738Z,21.27
2023-05-04T14:14:30.675Z,21.07
2023-05-04T14:16:58.745Z,20.79
2023-05-04T14:19:28.477Z,21.06
2023-05-04T14:21:56.422Z,21.14
2023-05-04T14:24:25.613Z,21.10
2023-05-04T14:26:54.892Z,21.29
2023-05-04T14:29:22.832Z,21.15
2023-05-04T14:31:50.711Z,21.41
2023-05-04T14:34:18.733Z,21.29
2023-05-04T14:36:46.664Z,21.21
2023-05-04T14:39:14.542Z,21.13
2023-05-04T14:41:42.508Z,20.75
2023-05-04T14:44:11.899Z,20.72
2023-05-04T14:46:39.867Z,20.59
2023-05-04T14:49:08.410Z,20.62
2023-05-04T14:51:36.839Z,20.69
2023-05-04T14:54:04.907Z,20.63
2023-05-04T14:56:32.805Z,20.50
2023-05-04T14:59:01.723Z,20.33
2023-05-04T15:01:31.269Z,20.29
2023-05-04T15:03:59.404Z,20.36
2023-05-04T15:06:32.654Z,20.26
2023-05-04T15:09:00.720Z,20.07
2023-05-04T15:11:29.235Z,19.94
2023-05-04T15:13:58.913Z,20.00
2023-05-04T15:16:29.883Z,19.90
2023-05-04T15:19:00.048Z,20.03
2023-05-04T15:21:28.349Z,20.22
2023-05-04T15:23:56.264Z,20.49
2023-05-04T15:26:24.296Z,20.48
2023-05-04T15:28:53.964Z,20.71
2023-05-04T15:31:22.515Z,20.94
2023-05-04T15:33:50.455Z,21.10
2023-05-04T15:36:19.754Z,21.15
2023-05-04T15:38:47.737Z,21.34
2023-05-04T15:41:15.890Z,21.36
2023-05-04T15:43:43.778Z,21.44
2023-05-04T15:46:11.763Z,21.70
2023-05-04T15:48:39.709Z,21.87
2023-05-04T15:51:10.856Z,22.18
2023-05-04T15:53:40.170Z,22.33
2023-05-04T15:56:08.861Z,22.47
2023-05-04T15:58:37.323Z,22.70
2023-05-04T16:01:09.219Z,22.46
2023-05-04T16:03:38.664Z,22.12
2023-05-04T16:06:08.941Z,22.01
2023-05-04T16:08:37.417Z,21.47
2023-05-04T16:11:07.781Z,21.47
2023-05-04T16:13:35.879Z,22.01
2023-05-04T16:16:03.868Z,21.91
2023-05-04T16:18:31.814Z,21.98
2023-05-04T16:20:59.743Z,22.30
2023-05-04T16:23:28.103Z,22.26
2023-05-04T16:25:56.218Z,22.33
2023-05-04T16:28:25.516Z,21.82
2023-05-04T16:30:53.436Z,21.32
2023-05-04T16:33:21.468Z,21.45
2023-05-04T16:35:49.412Z,21.31
2023-05-04T16:38:19.478Z,21.36
2023-05-04T16:40:47.455Z,20.81
2023-05-04T16:43:15.396Z,21.23
2023-05-04T16:45:44.723Z,21.12
2023-05-04T16:48:12.631Z,20.88
2023-05-04T16:50:40.511Z,20.98
2023-05-04T16:53:08.452Z,20.70
2023-05-04T16:55:37.255Z,20.33
2023-05-04T16:58:05.145Z,20.44
2023-05-04T17:00:33.170Z,20.59
2023-05-04T17:03:02.502Z,20.19
2023-05-04T17:05:30.420Z,20.00
2023-05-04T17:07:58.368Z,19.72
2023-05-04T17:10:26.251Z,19.70
2023-05-04T17:12:54.653Z,19.72
2023-05-04T17:15:22.679Z,19.66
2023-05-04T17:17:50.693Z,19.46
2023-05-04T17:20:21.696Z,19.03
2023-05-04T17:22:51.473Z,19.13
2023-05-04T17:25:19.550Z,18.92
2023-05-04T17:27:47.802Z,18.66
2023-05-04T17:30:16.007Z,18.70
2023-05-04T17:32:43.943Z,18.74
2023-05-04T17:35:24.066Z,18.47
2023-05-04T17:37:57.865Z,18.26
2023-05-04T17:40:26.242Z,18.33
2023-05-04T17:42:54.355Z,18.20
2023-05-04T17:45:22.301Z,18.16
2023-05-04T17:47:51.790Z,17.94
2023-05-04T17:50:47.344Z,17.94
2023-05-04T17:53:16.742Z,17.74
2023-05-04T17:55:44.681Z,17.86
2023-05-04T17:58:12.598Z,17.75
2023-05-04T18:00:40.584Z,17.51
2023-05-04T18:03:08.510Z,17.13
2023-05-04T18:05:36.537Z,17.32
2023-05-04T18:08:04.697Z,17.31
2023-05-04T18:10:34.144Z,17.14
2023-05-04T18:13:02.135Z,16.88
2023-05-04T18:15:30.145Z,17.02
2023-05-04T18:17:58.288Z,17.15
2023-05-04T18:20:26.530Z,16.78
2023-05-04T18:22:54.448Z,16.80
2023-05-04T18:25:22.583Z,16.72
2023-05-04T18:27:52.266Z,16.85
2023-05-04T18:30:20.146Z,16.72
2023-05-04T18:32:48.078Z,16.60
2023-05-04T18:35:17.203Z,16.45
2023-05-04T18:37:45.113Z,16.23
2023-05-04T18:40:14.086Z,16.31
2023-05-04T18:42:42.024Z,16.09
2023-05-04T18:45:12.686Z,16.13
2023-05-04T18:47:40.662Z,15.91
2023-05-04T18:50:09.894Z,15.94
2023-05-04T18:52:37.959Z,15.85
2023-05-04T18:55:06.617Z,15.70
2023-05-04T18:57:34.579Z,15.51
2023-05-04T19:00:02.512Z,15.46
2023-05-04T19:02:33.356Z,15.33
2023-05-04T19:05:01.316Z,15.23
2023-05-04T19:07:29.178Z,14.83
2023-05-04T19:09:57.084Z,14.55
2023-05-04T19:12:25.208Z,14.69
2023-05-04T19:14:53.121Z,14.78
2023-05-04T19:17:21.161Z,14.66
2023-05-04T19:19:50.444Z,14.63
2023-05-04T19:22:18.330Z,14.86
2023-05-04T19:28:15.270Z,14.77
2023-05-04T19:30:43.212Z,14.55
2023-05-04T19:33:17.817Z,14.43
2023-05-04T19:35:47.688Z,14.26
2023-05-04T19:38:16.014Z,14.16
2023-05-04T19:40:44.150Z,14.06
2023-05-04T19:43:12.071Z,13.98
2023-05-04T19:45:40.961Z,14.08
2023-05-04T19:48:08.919Z,14.32
2023-05-04T19:50:36.862Z,13.92
2023-05-04T19:53:06.150Z,13.83
2023-05-04T19:55:34.211Z,13.70
2023-05-04T19:58:02.180Z,13.90
2023-05-04T20:00:30.220Z,13.83
2023-05-04T20:02:58.921Z,13.75
2023-05-04T20:05:26.855Z,13.79
2023-05-04T20:07:54.798Z,13.76
2023-05-04T20:10:24.292Z,13.73
2023-05-04T20:12:52.281Z,13.44
2023-05-04T20:15:20.368Z,13.30
2023-05-04T20:17:48.458Z,13.37
2023-05-04T20:20:20.127Z,13.21
2023-05-04T20:22:49.136Z,13.22
2023-05-04T20:25:17.124Z,13.30
2023-05-04T20:27:48.570Z,13.14
2023-05-04T20:30:18.033Z,13.13
2023-05-04T20:32:45.967Z,13.08
2023-05-04T20:35:13.871Z,12.98
2023-05-04T20:37:41.819Z,13.17
2023-05-04T20:40:10.916Z,12.90
2023-05-04T20:42:39.255Z,12.84
2023-05-04T20:45:09.965Z,12.70
2023-05-04T20:47:37.956Z,12.69
2023-05-04T20:50:07.017Z,12.70
2023-05-04T20:52:35.127Z,12.60
2023-05-04T20:55:03.103Z,12.72
2023-05-04T20:57:31.020Z,12.58
2023-05-04T20:59:59.154Z,12.75
2023-05-04T21:02:28.689Z,12.81
2023-05-04T21:04:56.617Z,12.67
2023-05-04T21:07:24.539Z,12.66
2023-05-04T21:09:57.354Z,12.60
2023-05-04T21:12:25.888Z,12.50
2023-05-04T21:14:53.789Z,12.39
2023-05-04T21:17:21.739Z,12.34
2023-05-04T21:19:51.068Z,12.28
2023-05-04T21:22:18.991Z,12.43
2023-05-04T21:24:47.378Z,12.24
2023-05-04T21:27:15.257Z,12.30
2023-05-04T21:29:43.177Z,12.14
2023-05-04T21:32:11.054Z,12.30
2023-05-04T21:34:38.970Z,12.22
2023-05-04T21:37:08.274Z,12.15
2023-05-04T21:39:36.186Z,12.01
2023-05-04T21:42:04.289Z,12.04
2023-05-04T21:44:32.564Z,11.89
2023-05-04T21:47:01.217Z,12.03
2023-05-04T21:49:29.205Z,11.98
2023-05-04T21:51:57.088Z,11.99
2023-05-04T21:54:26.385Z,11.92
2023-05-04T21:56:54.608Z,11.93
2023-05-04T21:59:22.500Z,11.88
2023-05-04T22:01:50.401Z,11.77
2023-05-04T22:04:18.342Z,11.87
2023-05-04T22:06:47.492Z,12.02
2023-05-04T22:09:15.995Z,11.88
2023-05-04T22:11:45.480Z,11.85
2023-05-04T22:14:13.427Z,11.92
2023-05-04T22:16:41.466Z,11.86
2023-05-04T22:19:09.515Z,11.63
2023-05-04T22:21:39.762Z,11.84
2023-05-04T22:24:08.122Z,11.78
2023-05-04T22:26:36.097Z,11.96
2023-05-04T22:29:05.449Z,11.82
2023-05-04T22:31:33.392Z,11.87
2023-05-04T22:34:01.276Z,11.86
2023-05-04T22:36:29.170Z,11.74
2023-05-04T22:38:57.070Z,11.87
2023-05-04T22:41:25.379Z,11.78
2023-05-04T22:43:53.282Z,11.63
2023-05-04T22:46:22.607Z,11.80
2023-05-04T22:48:50.648Z,11.78
2023-05-04T22:51:18.556Z,11.71
2023-05-04T22:53:46.475Z,11.69
2023-05-04T22:56:14.395Z,11.69
2023-05-04T22:58:42.544Z,11.73
2023-05-04T23:01:11.675Z,11.90
2023-05-04T23:03:41.340Z,11.72
2023-05-04T23:06:09.836Z,11.82
2023-05-04T23:08:38.675Z,11.72
2023-05-04T23:11:06.665Z,11.75
2023-05-04T23:13:34.803Z,11.64
2023-05-04T23:16:03.662Z,11.27
2023-05-04T23:18:33.057Z,11.29
2023-05-04T23:21:02.501Z,11.29
2023-05-04T23:23:30.380Z,11.40
2023-05-04T23:25:58.423Z,11.44
2023-05-04T23:28:26.351Z,11.43
2023-05-04T23:30:55.740Z,11.24
2023-05-04T23:33:23.741Z,11.39
2023-05-04T23:35:55.396Z,11.27
2023-05-04T23:38:24.669Z,11.12
2023-05-04T23:40:53.813Z,11.19
2023-05-04T23:43:22.706Z,11.07
2023-05-04T23:45:50.682Z,10.97
2023-05-04T23:48:18.648Z,11.29
2023-05-04T23:50:53.366Z,11.38
2023-05-04T23:53:21.268Z,11.23
2023-05-04T23:55:57.840Z,11.28
2023-05-04T23:58:25.866Z,11.32
